sensor_id;sensor_type;location;lat;lon;timestamp;temperature;humidity
17200;DHT22;8716;52.268;20.968;2023-08-24T00:00:32;20.40;99.90
17200;DHT22;8716;52.268;20.968;2023-08-24T00:03:01;20.40;99.90
17200;DHT22;8716;52.268;20.968;2023-08-24T00:05:33;20.40;99.90
17200;DHT22;8716;52.268;20.968;2023-08-24T00:08:03;20.30;99.90
17200;DHT22;8716;52.268;20.968;2023-08-24T00:10:32;20.30;99.90
17200;DHT22;8716;52.268;20.968;2023-08-24T00:13:00;20.30;99.90
17200;DHT22;8716;52.268;20.968;2023-08-24T00:15:29;20.20;99.90
17200;DHT22;8716;52.268;20.968;2023-08-24T00:17:58;20.20;99.90
17200;DHT22;8716;52.268;20.968;2023-08-24T00:20:26;20.20;99.90
17200;DHT22;8716;52.268;20.968;2023-08-24T00:22:55;20.10;99.90
17200;DHT22;8716;52.268;20.968;2023-08-24T00:25:25;20.10;99.90
17200;DHT22;8716;52.268;20.968;2023-08-24T00:27:56;20.10;99.90
17200;DHT22;8716;52.268;20.968;2023-08-24T00:30:24;20.10;99.90
17200;DHT22;8716;52.268;20.968;2023-08-24T00:32:53;20.00;99.90
17200;DHT22;8716;52.268;20.968;2023-08-24T00:35:21;20.00;99.90
17200;DHT22;8716;52.268;20.968;2023-08-24T00:37:51;20.00;99.90
17200;DHT22;8716;52.268;20.968;2023-08-24T00:40:19;19.90;99.90
17200;DHT22;8716;52.268;20.968;2023-08-24T00:42:49;19.90;99.90
17200;DHT22;8716;52.268;20.968;2023-08-24T00:45:17;19.90;99.90
17200;DHT22;8716;52.268;20.968;2023-08-24T00:47:48;19.90;99.90
17200;DHT22;8716;52.268;20.968;2023-08-24T00:50:17;19.90;99.90
17200;DHT22;8716;52.268;20.968;2023-08-24T00:52:47;19.90;99.90
17200;DHT22;8716;52.268;20.968;2023-08-24T00:55:16;19.80;99.90
17200;DHT22;8716;52.268;20.968;2023-08-24T00:57:44;19.90;99.90
17200;DHT22;8716;52.268;20.968;2023-08-24T01:00:15;19.80;99.90
17200;DHT22;8716;52.268;20.968;2023-08-24T01:02:44;19.80;99.90
17200;DHT22;8716;52.268;20.968;2023-08-24T01:05:14;19.80;99.90
17200;DHT22;8716;52.268;20.968;2023-08-24T01:07:44;19.80;99.90
17200;DHT22;8716;52.268;20.968;2023-08-24T01:10:12;19.80;99.90
17200;DHT22;8716;52.268;20.968;2023-08-24T01:12:59;19.70;99.90
17200;DHT22;8716;52.268;20.968;2023-08-24T01:15:37;19.80;99.90
17200;DHT22;8716;52.268;20.968;2023-08-24T01:18:14;19.80;99.90
17200;DHT22;8716;52.268;20.968;2023-08-24T01:20:44;19.80;99.90
17200;DHT22;8716;52.268;20.968;2023-08-24T01:23:19;19.90;99.90
17200;DHT22;8716;52.268;20.968;2023-08-24T01:25:52;19.90;99.90
17200;DHT22;8716;52.268;20.968;2023-08-24T01:28:23;19.90;99.90
17200;DHT22;8716;52.268;20.968;2023-08-24T01:30:52;19.90;99.90
17200;DHT22;8716;52.268;20.968;2023-08-24T01:33:21;20.00;99.90
17200;DHT22;8716;52.268;20.968;2023-08-24T01:35:53;20.00;99.90
17200;DHT22;8716;52.268;20.968;2023-08-24T01:38:21;20.00;99.90
17200;DHT22;8716;52.268;20.968;2023-08-24T01:40:54;20.00;99.90
17200;DHT22;8716;52.268;20.968;2023-08-24T01:43:29;20.00;99.90
17200;DHT22;8716;52.268;20.968;2023-08-24T01:46:15;20.00;99.90
17200;DHT22;8716;52.268;20.968;2023-08-24T01:48:45;20.00;99.90
17200;DHT22;8716;52.268;20.968;2023-08-24T01:51:14;20.00;99.90
17200;DHT22;8716;52.268;20.968;2023-08-24T01:53:43;20.00;99.90
17200;DHT22;8716;52.268;20.968;2023-08-24T01:56:13;20.00;99.90
17200;DHT22;8716;52.268;20.968;2023-08-24T01:58:43;20.00;99.90
17200;DHT22;8716;52.268;20.968;2023-08-24T02:01:11;19.90;99.90
17200;DHT22;8716;52.268;20.968;2023-08-24T02:03:40;19.90;99.90
17200;DHT22;8716;52.268;20.968;2023-08-24T02:06:09;19.80;99.90
17200;DHT22;8716;52.268;20.968;2023-08-24T02:08:37;19.80;99.90
17200;DHT22;8716;52.268;20.968;2023-08-24T02:11:07;19.80;99.90
17200;DHT22;8716;52.268;20.968;2023-08-24T02:13:35;19.70;99.90
17200;DHT22;8716;52.268;20.968;2023-08-24T02:16:06;19.70;99.90
17200;DHT22;8716;52.268;20.968;2023-08-24T02:18:35;19.60;99.90
17200;DHT22;8716;52.268;20.968;2023-08-24T02:21:07;19.60;99.90
17200;DHT22;8716;52.268;20.968;2023-08-24T02:23:37;19.50;99.90
17200;DHT22;8716;52.268;20.968;2023-08-24T02:26:06;19.50;99.90
17200;DHT22;8716;52.268;20.968;2023-08-24T02:28:37;19.40;99.90
17200;DHT22;8716;52.268;20.968;2023-08-24T02:31:07;19.40;99.90
17200;DHT22;8716;52.268;20.968;2023-08-24T02:33:37;19.30;99.90
17200;DHT22;8716;52.268;20.968;2023-08-24T02:36:08;19.30;99.90
17200;DHT22;8716;52.268;20.968;2023-08-24T02:38:36;19.30;99.90
17200;DHT22;8716;52.268;20.968;2023-08-24T02:41:06;19.20;99.90
17200;DHT22;8716;52.268;20.968;2023-08-24T02:43:36;19.20;99.90
17200;DHT22;8716;52.268;20.968;2023-08-24T02:46:07;19.20;99.90
17200;DHT22;8716;52.268;20.968;2023-08-24T02:48:36;19.20;99.90
17200;DHT22;8716;52.268;20.968;2023-08-24T02:51:05;19.20;99.90
17200;DHT22;8716;52.268;20.968;2023-08-24T02:53:36;19.20;99.90
17200;DHT22;8716;52.268;20.968;2023-08-24T02:56:04;19.20;99.90
17200;DHT22;8716;52.268;20.968;2023-08-24T02:58:33;19.20;99.90
17200;DHT22;8716;52.268;20.968;2023-08-24T03:01:04;19.20;99.90
17200;DHT22;8716;52.268;20.968;2023-08-24T03:03:35;19.20;99.90
17200;DHT22;8716;52.268;20.968;2023-08-24T03:06:05;19.20;99.90
17200;DHT22;8716;52.268;20.968;2023-08-24T03:08:34;19.10;99.90
17200;DHT22;8716;52.268;20.968;2023-08-24T03:11:03;19.20;99.90
17200;DHT22;8716;52.268;20.968;2023-08-24T03:13:31;19.20;99.90
17200;DHT22;8716;52.268;20.968;2023-08-24T03:16:03;19.20;99.90
17200;DHT22;8716;52.268;20.968;2023-08-24T03:18:34;19.20;99.90
17200;DHT22;8716;52.268;20.968;2023-08-24T03:21:04;19.20;99.90
17200;DHT22;8716;52.268;20.968;2023-08-24T03:23:33;19.20;99.90
17200;DHT22;8716;52.268;20.968;2023-08-24T03:26:02;19.20;99.90
17200;DHT22;8716;52.268;20.968;2023-08-24T03:28:30;19.20;99.90
17200;DHT22;8716;52.268;20.968;2023-08-24T03:31:00;19.20;99.90
17200;DHT22;8716;52.268;20.968;2023-08-24T03:33:31;19.30;99.90
17200;DHT22;8716;52.268;20.968;2023-08-24T03:36:01;19.30;99.90
17200;DHT22;8716;52.268;20.968;2023-08-24T03:38:30;19.30;99.90
17200;DHT22;8716;52.268;20.968;2023-08-24T03:41:02;19.20;99.90
17200;DHT22;8716;52.268;20.968;2023-08-24T03:43:32;19.20;99.90
17200;DHT22;8716;52.268;20.968;2023-08-24T03:46:00;19.20;99.90
17200;DHT22;8716;52.268;20.968;2023-08-24T03:48:29;19.20;99.90
17200;DHT22;8716;52.268;20.968;2023-08-24T03:50:58;19.20;99.90
17200;DHT22;8716;52.268;20.968;2023-08-24T03:53:28;19.20;99.90
17200;DHT22;8716;52.268;20.968;2023-08-24T03:55:59;19.20;99.90
17200;DHT22;8716;52.268;20.968;2023-08-24T03:58:31;19.20;99.90
17200;DHT22;8716;52.268;20.968;2023-08-24T04:01:02;19.20;99.90
17200;DHT22;8716;52.268;20.968;2023-08-24T04:03:30;19.20;99.90
17200;DHT22;8716;52.268;20.968;2023-08-24T04:06:01;19.30;99.90
17200;DHT22;8716;52.268;20.968;2023-08-24T04:08:31;19.30;99.90
17200;DHT22;8716;52.268;20.968;2023-08-24T04:11:00;19.30;99.90
17200;DHT22;8716;52.268;20.968;2023-08-24T04:13:30;19.30;99.90
17200;DHT22;8716;52.268;20.968;2023-08-24T04:15:59;19.30;99.90
17200;DHT22;8716;52.268;20.968;2023-08-24T04:18:27;19.30;99.90
17200;DHT22;8716;52.268;20.968;2023-08-24T04:20:56;19.30;99.90
17200;DHT22;8716;52.268;20.968;2023-08-24T04:23:24;19.30;99.90
17200;DHT22;8716;52.268;20.968;2023-08-24T04:25:55;19.40;99.90
17200;DHT22;8716;52.268;20.968;2023-08-24T04:28:23;19.40;99.90
17200;DHT22;8716;52.268;20.968;2023-08-24T04:30:53;19.40;99.90
17200;DHT22;8716;52.268;20.968;2023-08-24T04:33:21;19.40;99.90
17200;DHT22;8716;52.268;20.968;2023-08-24T04:35:50;19.50;99.90
17200;DHT22;8716;52.268;20.968;2023-08-24T04:38:18;19.50;99.90
17200;DHT22;8716;52.268;20.968;2023-08-24T04:40:49;19.50;99.90
17200;DHT22;8716;52.268;20.968;2023-08-24T04:43:20;19.60;99.90
17200;DHT22;8716;52.268;20.968;2023-08-24T04:45:49;19.60;99.90
17200;DHT22;8716;52.268;20.968;2023-08-24T04:48:19;19.70;99.90
17200;DHT22;8716;52.268;20.968;2023-08-24T04:50:48;19.70;99.90
17200;DHT22;8716;52.268;20.968;2023-08-24T04:53:17;19.80;99.90
17200;DHT22;8716;52.268;20.968;2023-08-24T04:55:46;19.80;99.90
17200;DHT22;8716;52.268;20.968;2023-08-24T04:58:14;19.90;99.90
17200;DHT22;8716;52.268;20.968;2023-08-24T05:00:47;20.00;99.90
17200;DHT22;8716;52.268;20.968;2023-08-24T05:03:16;20.20;99.90
17200;DHT22;8716;52.268;20.968;2023-08-24T05:05:44;20.60;99.90
17200;DHT22;8716;52.268;20.968;2023-08-24T05:08:13;20.90;99.90
17200;DHT22;8716;52.268;20.968;2023-08-24T05:10:41;21.20;99.90
17200;DHT22;8716;52.268;20.968;2023-08-24T05:13:10;21.40;99.90
17200;DHT22;8716;52.268;20.968;2023-08-24T05:15:38;21.50;99.90
17200;DHT22;8716;52.268;20.968;2023-08-24T05:18:08;21.50;99.90
17200;DHT22;8716;52.268;20.968;2023-08-24T05:20:38;21.60;99.90
17200;DHT22;8716;52.268;20.968;2023-08-24T05:23:07;21.60;99.90
17200;DHT22;8716;52.268;20.968;2023-08-24T05:25:35;21.60;99.90
17200;DHT22;8716;52.268;20.968;2023-08-24T05:28:04;21.60;99.90
17200;DHT22;8716;52.268;20.968;2023-08-24T05:30:35;21.70;99.90
17200;DHT22;8716;52.268;20.968;2023-08-24T05:33:04;21.70;99.90
17200;DHT22;8716;52.268;20.968;2023-08-24T05:35:36;21.80;99.90
17200;DHT22;8716;52.268;20.968;2023-08-24T05:38:05;21.80;99.90
17200;DHT22;8716;52.268;20.968;2023-08-24T05:40:34;21.90;99.90
17200;DHT22;8716;52.268;20.968;2023-08-24T05:43:04;22.00;99.90
17200;DHT22;8716;52.268;20.968;2023-08-24T05:45:32;22.00;99.90
17200;DHT22;8716;52.268;20.968;2023-08-24T05:48:00;22.10;99.90
17200;DHT22;8716;52.268;20.968;2023-08-24T05:50:29;22.10;99.90
17200;DHT22;8716;52.268;20.968;2023-08-24T05:52:58;22.20;99.90
17200;DHT22;8716;52.268;20.968;2023-08-24T05:55:27;22.20;99.90
17200;DHT22;8716;52.268;20.968;2023-08-24T05:57:55;22.20;99.90
17200;DHT22;8716;52.268;20.968;2023-08-24T06:00:23;22.20;99.90
17200;DHT22;8716;52.268;20.968;2023-08-24T06:02:52;22.30;99.90
17200;DHT22;8716;52.268;20.968;2023-08-24T06:05:20;22.20;99.90
17200;DHT22;8716;52.268;20.968;2023-08-24T06:07:48;22.30;99.90
17200;DHT22;8716;52.268;20.968;2023-08-24T06:10:21;22.30;99.90
17200;DHT22;8716;52.268;20.968;2023-08-24T06:12:49;22.40;99.90
17200;DHT22;8716;52.268;20.968;2023-08-24T06:15:18;22.40;99.90
17200;DHT22;8716;52.268;20.968;2023-08-24T06:17:46;22.60;99.90
17200;DHT22;8716;52.268;20.968;2023-08-24T06:20:17;22.70;99.90
17200;DHT22;8716;52.268;20.968;2023-08-24T06:22:46;22.80;99.90
17200;DHT22;8716;52.268;20.968;2023-08-24T06:25:14;23.00;99.90
17200;DHT22;8716;52.268;20.968;2023-08-24T06:27:44;23.30;99.90
17200;DHT22;8716;52.268;20.968;2023-08-24T06:30:12;23.70;99.90
17200;DHT22;8716;52.268;20.968;2023-08-24T06:32:40;24.10;99.90
17200;DHT22;8716;52.268;20.968;2023-08-24T06:35:09;24.70;99.90
17200;DHT22;8716;52.268;20.968;2023-08-24T06:37:43;25.40;99.90
17200;DHT22;8716;52.268;20.968;2023-08-24T06:40:11;26.10;99.90
17200;DHT22;8716;52.268;20.968;2023-08-24T06:42:41;27.00;99.90
17200;DHT22;8716;52.268;20.968;2023-08-24T06:45:11;27.90;99.90
17200;DHT22;8716;52.268;20.968;2023-08-24T06:47:42;28.70;99.90
17200;DHT22;8716;52.268;20.968;2023-08-24T06:50:10;29.60;99.90
17200;DHT22;8716;52.268;20.968;2023-08-24T06:52:39;30.30;99.90
17200;DHT22;8716;52.268;20.968;2023-08-24T06:55:08;30.80;99.90
17200;DHT22;8716;52.268;20.968;2023-08-24T06:57:37;31.40;99.50
17200;DHT22;8716;52.268;20.968;2023-08-24T07:00:06;32.10;97.10
17200;DHT22;8716;52.268;20.968;2023-08-24T07:02:37;32.60;95.40
17200;DHT22;8716;52.268;20.968;2023-08-24T07:05:06;33.20;93.40
17200;DHT22;8716;52.268;20.968;2023-08-24T07:07:36;33.70;90.90
17200;DHT22;8716;52.268;20.968;2023-08-24T07:10:07;34.40;88.80
17200;DHT22;8716;52.268;20.968;2023-08-24T07:12:36;35.00;84.10
17200;DHT22;8716;52.268;20.968;2023-08-24T07:15:06;35.30;80.50
17200;DHT22;8716;52.268;20.968;2023-08-24T07:17:34;35.60;78.80
17200;DHT22;8716;52.268;20.968;2023-08-24T07:20:04;35.90;75.80
17200;DHT22;8716;52.268;20.968;2023-08-24T07:22:35;36.00;75.10
17200;DHT22;8716;52.268;20.968;2023-08-24T07:25:04;36.30;72.80
17200;DHT22;8716;52.268;20.968;2023-08-24T07:27:33;36.60;71.00
17200;DHT22;8716;52.268;20.968;2023-08-24T07:30:03;36.90;70.20
17200;DHT22;8716;52.268;20.968;2023-08-24T07:32:52;37.00;69.50
17200;DHT22;8716;52.268;20.968;2023-08-24T07:35:22;37.40;67.40
17200;DHT22;8716;52.268;20.968;2023-08-24T07:37:52;37.70;66.30
17200;DHT22;8716;52.268;20.968;2023-08-24T07:40:23;37.20;65.70
17200;DHT22;8716;52.268;20.968;2023-08-24T07:42:54;36.90;66.40
17200;DHT22;8716;52.268;20.968;2023-08-24T07:45:24;36.90;65.90
17200;DHT22;8716;52.268;20.968;2023-08-24T07:47:53;37.20;64.90
17200;DHT22;8716;52.268;20.968;2023-08-24T07:50:23;37.60;63.40
17200;DHT22;8716;52.268;20.968;2023-08-24T07:52:52;38.10;63.70
17200;DHT22;8716;52.268;20.968;2023-08-24T07:55:23;38.30;63.10
17200;DHT22;8716;52.268;20.968;2023-08-24T07:57:52;38.40;61.50
17200;DHT22;8716;52.268;20.968;2023-08-24T08:00:23;37.90;61.70
17200;DHT22;8716;52.268;20.968;2023-08-24T08:02:52;37.90;62.20
17200;DHT22;8716;52.268;20.968;2023-08-24T08:05:22;38.10;61.70
17200;DHT22;8716;52.268;20.968;2023-08-24T08:07:50;38.50;61.50
17200;DHT22;8716;52.268;20.968;2023-08-24T08:10:19;38.90;60.10
17200;DHT22;8716;52.268;20.968;2023-08-24T08:12:48;39.30;59.90
17200;DHT22;8716;52.268;20.968;2023-08-24T08:15:16;39.60;59.40
17200;DHT22;8716;52.268;20.968;2023-08-24T08:17:45;40.10;59.00
17200;DHT22;8716;52.268;20.968;2023-08-24T08:20:14;40.50;56.80
17200;DHT22;8716;52.268;20.968;2023-08-24T08:22:44;41.00;56.60
17200;DHT22;8716;52.268;20.968;2023-08-24T08:25:12;41.30;55.80
17200;DHT22;8716;52.268;20.968;2023-08-24T08:27:41;41.70;54.80
17200;DHT22;8716;52.268;20.968;2023-08-24T08:30:10;41.90;54.20
17200;DHT22;8716;52.268;20.968;2023-08-24T08:32:39;42.00;54.00
17200;DHT22;8716;52.268;20.968;2023-08-24T08:35:08;41.60;52.80
17200;DHT22;8716;52.268;20.968;2023-08-24T08:37:36;41.10;53.30
17200;DHT22;8716;52.268;20.968;2023-08-24T08:40:10;40.80;54.00
17200;DHT22;8716;52.268;20.968;2023-08-24T08:42:38;40.80;53.20
17200;DHT22;8716;52.268;20.968;2023-08-24T08:45:09;40.60;54.10
17200;DHT22;8716;52.268;20.968;2023-08-24T08:47:39;40.10;53.90
17200;DHT22;8716;52.268;20.968;2023-08-24T08:50:11;39.50;54.90
17200;DHT22;8716;52.268;20.968;2023-08-24T08:52:39;38.90;55.60
17200;DHT22;8716;52.268;20.968;2023-08-24T08:55:09;38.50;56.00
17200;DHT22;8716;52.268;20.968;2023-08-24T08:57:38;38.00;56.80
17200;DHT22;8716;52.268;20.968;2023-08-24T09:00:10;37.80;57.60
17200;DHT22;8716;52.268;20.968;2023-08-24T09:02:44;37.50;57.90
17200;DHT22;8716;52.268;20.968;2023-08-24T09:05:15;37.60;58.90
17200;DHT22;8716;52.268;20.968;2023-08-24T09:07:44;38.10;57.90
17200;DHT22;8716;52.268;20.968;2023-08-24T09:10:14;38.90;57.70
17200;DHT22;8716;52.268;20.968;2023-08-24T09:12:42;39.60;55.60
17200;DHT22;8716;52.268;20.968;2023-08-24T09:15:11;40.10;54.80
17200;DHT22;8716;52.268;20.968;2023-08-24T09:17:42;40.70;53.90
17200;DHT22;8716;52.268;20.968;2023-08-24T09:20:12;41.60;53.80
17200;DHT22;8716;52.268;20.968;2023-08-24T09:22:44;42.30;52.40
17200;DHT22;8716;52.268;20.968;2023-08-24T09:25:14;42.90;52.00
17200;DHT22;8716;52.268;20.968;2023-08-24T09:27:42;43.30;50.40
17200;DHT22;8716;52.268;20.968;2023-08-24T09:30:11;43.90;49.80
17200;DHT22;8716;52.268;20.968;2023-08-24T09:32:40;44.40;48.60
17200;DHT22;8716;52.268;20.968;2023-08-24T09:35:10;44.20;48.10
17200;DHT22;8716;52.268;20.968;2023-08-24T09:37:40;43.50;48.30
17200;DHT22;8716;52.268;20.968;2023-08-24T09:40:14;42.80;48.60
17200;DHT22;8716;52.268;20.968;2023-08-24T09:42:43;41.70;49.10
17200;DHT22;8716;52.268;20.968;2023-08-24T09:45:12;40.70;50.80
17200;DHT22;8716;52.268;20.968;2023-08-24T09:47:45;39.80;51.10
17200;DHT22;8716;52.268;20.968;2023-08-24T09:50:14;39.10;52.60
17200;DHT22;8716;52.268;20.968;2023-08-24T09:52:42;38.40;53.70
17200;DHT22;8716;52.268;20.968;2023-08-24T09:55:12;37.70;54.30
17200;DHT22;8716;52.268;20.968;2023-08-24T09:57:43;37.20;55.50
17200;DHT22;8716;52.268;20.968;2023-08-24T10:00:13;37.00;56.40
17200;DHT22;8716;52.268;20.968;2023-08-24T10:02:48;36.80;56.50
17200;DHT22;8716;52.268;20.968;2023-08-24T10:05:20;36.40;57.00
17200;DHT22;8716;52.268;20.968;2023-08-24T10:07:53;36.00;57.50
17200;DHT22;8716;52.268;20.968;2023-08-24T10:10:25;35.60;58.10
17200;DHT22;8716;52.268;20.968;2023-08-24T10:13:00;35.20;59.30
17200;DHT22;8716;52.268;20.968;2023-08-24T10:15:36;35.20;60.40
17200;DHT22;8716;52.268;20.968;2023-08-24T10:18:18;35.40;59.30
17200;DHT22;8716;52.268;20.968;2023-08-24T10:20:47;35.80;59.20
17200;DHT22;8716;52.268;20.968;2023-08-24T10:23:16;36.60;59.30
17200;DHT22;8716;52.268;20.968;2023-08-24T10:25:46;37.20;57.10
17200;DHT22;8716;52.268;20.968;2023-08-24T10:28:20;37.50;57.30
17200;DHT22;8716;52.268;20.968;2023-08-24T10:30:51;37.80;55.40
17200;DHT22;8716;52.268;20.968;2023-08-24T10:33:20;38.10;55.10
17200;DHT22;8716;52.268;20.968;2023-08-24T10:35:49;38.60;55.00
17200;DHT22;8716;52.268;20.968;2023-08-24T10:38:24;39.10;54.80
17200;DHT22;8716;52.268;20.968;2023-08-24T10:40:54;39.40;53.20
17200;DHT22;8716;52.268;20.968;2023-08-24T10:43:26;39.60;53.00
17200;DHT22;8716;52.268;20.968;2023-08-24T10:45:55;40.10;52.50
17200;DHT22;8716;52.268;20.968;2023-08-24T10:48:24;40.30;51.80
17200;DHT22;8716;52.268;20.968;2023-08-24T10:51:17;40.40;52.70
17200;DHT22;8716;52.268;20.968;2023-08-24T10:53:51;40.60;52.70
17200;DHT22;8716;52.268;20.968;2023-08-24T10:56:20;40.60;51.70
17200;DHT22;8716;52.268;20.968;2023-08-24T10:59:11;40.60;52.50
17200;DHT22;8716;52.268;20.968;2023-08-24T11:01:41;40.90;52.20
17200;DHT22;8716;52.268;20.968;2023-08-24T11:04:11;41.20;51.40
17200;DHT22;8716;52.268;20.968;2023-08-24T11:06:55;41.30;50.80
17200;DHT22;8716;52.268;20.968;2023-08-24T11:09:26;41.20;50.80
17200;DHT22;8716;52.268;20.968;2023-08-24T11:11:59;41.20;51.20
17200;DHT22;8716;52.268;20.968;2023-08-24T11:14:29;41.00;51.30
17200;DHT22;8716;52.268;20.968;2023-08-24T11:17:00;40.80;50.90
17200;DHT22;8716;52.268;20.968;2023-08-24T11:19:32;40.30;51.80
17200;DHT22;8716;52.268;20.968;2023-08-24T11:22:02;39.80;52.70
17200;DHT22;8716;52.268;20.968;2023-08-24T11:24:32;39.60;53.00
17200;DHT22;8716;52.268;20.968;2023-08-24T11:27:03;39.60;52.30
17200;DHT22;8716;52.268;20.968;2023-08-24T11:29:33;39.10;52.30
17200;DHT22;8716;52.268;20.968;2023-08-24T11:32:02;38.90;52.90
17200;DHT22;8716;52.268;20.968;2023-08-24T11:34:30;38.80;53.30
17200;DHT22;8716;52.268;20.968;2023-08-24T11:36:59;38.70;53.20
17200;DHT22;8716;52.268;20.968;2023-08-24T11:39:28;38.60;53.40
17200;DHT22;8716;52.268;20.968;2023-08-24T11:42:00;38.50;53.90
17200;DHT22;8716;52.268;20.968;2023-08-24T11:44:28;38.50;53.90
17200;DHT22;8716;52.268;20.968;2023-08-24T11:46:58;38.30;53.60
17200;DHT22;8716;52.268;20.968;2023-08-24T11:49:27;38.20;54.10
17200;DHT22;8716;52.268;20.968;2023-08-24T11:51:55;37.80;54.20
17200;DHT22;8716;52.268;20.968;2023-08-24T11:54:25;37.50;54.20
17200;DHT22;8716;52.268;20.968;2023-08-24T11:56:53;37.10;55.30
17200;DHT22;8716;52.268;20.968;2023-08-24T11:59:21;36.80;55.70
17200;DHT22;8716;52.268;20.968;2023-08-24T12:01:53;36.60;55.80
17200;DHT22;8716;52.268;20.968;2023-08-24T12:04:22;36.60;56.90
17200;DHT22;8716;52.268;20.968;2023-08-24T12:06:51;36.70;56.50
17200;DHT22;8716;52.268;20.968;2023-08-24T12:09:19;36.80;55.80
17200;DHT22;8716;52.268;20.968;2023-08-24T12:11:47;36.60;55.90
17200;DHT22;8716;52.268;20.968;2023-08-24T12:14:18;36.40;56.10
17200;DHT22;8716;52.268;20.968;2023-08-24T12:16:47;36.10;56.60
17200;DHT22;8716;52.268;20.968;2023-08-24T12:19:22;35.80;56.80
17200;DHT22;8716;52.268;20.968;2023-08-24T12:21:51;35.50;56.80
17200;DHT22;8716;52.268;20.968;2023-08-24T12:24:19;35.20;57.30
17200;DHT22;8716;52.268;20.968;2023-08-24T12:26:55;34.70;57.50
17200;DHT22;8716;52.268;20.968;2023-08-24T12:29:24;34.40;58.80
17200;DHT22;8716;52.268;20.968;2023-08-24T12:31:57;34.00;59.30
17200;DHT22;8716;52.268;20.968;2023-08-24T12:34:26;33.50;59.90
17200;DHT22;8716;52.268;20.968;2023-08-24T12:36:55;33.20;60.50
17200;DHT22;8716;52.268;20.968;2023-08-24T12:39:23;32.90;61.40
17200;DHT22;8716;52.268;20.968;2023-08-24T12:41:51;32.60;62.50
17200;DHT22;8716;52.268;20.968;2023-08-24T12:44:20;32.20;62.70
17200;DHT22;8716;52.268;20.968;2023-08-24T12:46:48;31.90;63.00
17200;DHT22;8716;52.268;20.968;2023-08-24T12:49:19;31.60;63.20
17200;DHT22;8716;52.268;20.968;2023-08-24T12:51:48;31.40;63.60
17200;DHT22;8716;52.268;20.968;2023-08-24T12:54:17;31.30;64.00
17200;DHT22;8716;52.268;20.968;2023-08-24T12:56:45;31.30;64.10
17200;DHT22;8716;52.268;20.968;2023-08-24T12:59:13;31.30;64.40
17200;DHT22;8716;52.268;20.968;2023-08-24T13:01:42;31.30;64.80
17200;DHT22;8716;52.268;20.968;2023-08-24T13:04:10;31.30;65.30
17200;DHT22;8716;52.268;20.968;2023-08-24T13:06:38;31.30;66.40
17200;DHT22;8716;52.268;20.968;2023-08-24T13:09:11;31.20;66.00
17200;DHT22;8716;52.268;20.968;2023-08-24T13:11:40;31.20;66.10
17200;DHT22;8716;52.268;20.968;2023-08-24T13:14:09;31.20;66.40
17200;DHT22;8716;52.268;20.968;2023-08-24T13:16:37;31.20;66.20
17200;DHT22;8716;52.268;20.968;2023-08-24T13:19:06;31.20;66.50
17200;DHT22;8716;52.268;20.968;2023-08-24T13:21:34;31.10;67.10
17200;DHT22;8716;52.268;20.968;2023-08-24T13:24:03;31.10;67.30
17200;DHT22;8716;52.268;20.968;2023-08-24T13:26:32;31.10;66.70
17200;DHT22;8716;52.268;20.968;2023-08-24T13:29:01;30.90;66.50
17200;DHT22;8716;52.268;20.968;2023-08-24T13:31:31;30.80;66.70
17200;DHT22;8716;52.268;20.968;2023-08-24T13:33:59;30.80;66.80
17200;DHT22;8716;52.268;20.968;2023-08-24T13:36:31;30.70;66.90
17200;DHT22;8716;52.268;20.968;2023-08-24T13:38:59;30.60;67.10
17200;DHT22;8716;52.268;20.968;2023-08-24T13:41:28;30.50;68.30
17200;DHT22;8716;52.268;20.968;2023-08-24T13:43:57;30.40;68.10
17200;DHT22;8716;52.268;20.968;2023-08-24T13:46:26;30.30;68.90
17200;DHT22;8716;52.268;20.968;2023-08-24T13:48:54;30.20;68.20
17200;DHT22;8716;52.268;20.968;2023-08-24T13:51:22;30.10;68.20
17200;DHT22;8716;52.268;20.968;2023-08-24T13:53:51;30.10;68.30
17200;DHT22;8716;52.268;20.968;2023-08-24T13:56:19;30.00;68.40
17200;DHT22;8716;52.268;20.968;2023-08-24T13:58:50;29.90;68.60
17200;DHT22;8716;52.268;20.968;2023-08-24T14:01:19;29.90;68.90
17200;DHT22;8716;52.268;20.968;2023-08-24T14:03:48;29.80;69.10
17200;DHT22;8716;52.268;20.968;2023-08-24T14:06:16;29.80;69.20
17200;DHT22;8716;52.268;20.968;2023-08-24T14:08:45;29.80;69.10
17200;DHT22;8716;52.268;20.968;2023-08-24T14:11:13;29.90;69.50
17200;DHT22;8716;52.268;20.968;2023-08-24T14:13:45;29.90;69.20
17200;DHT22;8716;52.268;20.968;2023-08-24T14:16:13;29.70;69.50
17200;DHT22;8716;52.268;20.968;2023-08-24T14:18:44;29.60;70.40
17200;DHT22;8716;52.268;20.968;2023-08-24T14:21:13;29.60;71.10
17200;DHT22;8716;52.268;20.968;2023-08-24T14:23:48;29.50;71.60
17200;DHT22;8716;52.268;20.968;2023-08-24T14:26:17;29.50;71.90
17200;DHT22;8716;52.268;20.968;2023-08-24T14:28:49;29.60;71.80
17200;DHT22;8716;52.268;20.968;2023-08-24T14:31:17;29.60;72.00
17200;DHT22;8716;52.268;20.968;2023-08-24T14:33:47;29.60;72.40
17200;DHT22;8716;52.268;20.968;2023-08-24T14:36:16;29.60;72.40
17200;DHT22;8716;52.268;20.968;2023-08-24T14:38:44;29.60;72.10
17200;DHT22;8716;52.268;20.968;2023-08-24T14:41:13;29.60;72.20
17200;DHT22;8716;52.268;20.968;2023-08-24T14:43:42;29.60;72.10
17200;DHT22;8716;52.268;20.968;2023-08-24T14:46:10;29.60;72.00
17200;DHT22;8716;52.268;20.968;2023-08-24T14:48:39;29.70;71.70
17200;DHT22;8716;52.268;20.968;2023-08-24T14:51:09;29.70;71.20
17200;DHT22;8716;52.268;20.968;2023-08-24T14:53:37;29.70;71.20
17200;DHT22;8716;52.268;20.968;2023-08-24T14:56:06;29.70;70.60
17200;DHT22;8716;52.268;20.968;2023-08-24T14:58:36;29.70;70.30
17200;DHT22;8716;52.268;20.968;2023-08-24T15:01:05;29.80;69.80
17200;DHT22;8716;52.268;20.968;2023-08-24T15:03:33;29.70;69.70
17200;DHT22;8716;52.268;20.968;2023-08-24T15:06:04;29.70;70.30
17200;DHT22;8716;52.268;20.968;2023-08-24T15:08:35;29.70;70.70
17200;DHT22;8716;52.268;20.968;2023-08-24T15:11:03;29.70;70.80
17200;DHT22;8716;52.268;20.968;2023-08-24T15:13:34;29.70;70.30
17200;DHT22;8716;52.268;20.968;2023-08-24T15:16:03;29.60;70.50
17200;DHT22;8716;52.268;20.968;2023-08-24T15:18:31;29.60;70.70
17200;DHT22;8716;52.268;20.968;2023-08-24T15:20:59;29.60;70.50
17200;DHT22;8716;52.268;20.968;2023-08-24T15:23:28;29.50;70.20
17200;DHT22;8716;52.268;20.968;2023-08-24T15:26:00;29.50;70.20
17200;DHT22;8716;52.268;20.968;2023-08-24T15:28:36;29.40;70.80
17200;DHT22;8716;52.268;20.968;2023-08-24T15:31:05;29.40;70.30
17200;DHT22;8716;52.268;20.968;2023-08-24T15:33:33;29.40;70.30
17200;DHT22;8716;52.268;20.968;2023-08-24T15:36:01;29.40;70.70
17200;DHT22;8716;52.268;20.968;2023-08-24T15:38:29;29.30;70.60
17200;DHT22;8716;52.268;20.968;2023-08-24T15:41:00;29.30;70.10
17200;DHT22;8716;52.268;20.968;2023-08-24T15:43:28;29.30;69.90
17200;DHT22;8716;52.268;20.968;2023-08-24T15:45:56;29.20;69.50